createdAt,value
2018-07-20T00:02:01.882Z,3.80
2018-07-20T00:04:29.554Z,3.40
2018-07-20T00:06:57.095Z,3.08
2018-07-20T00:09:24.680Z,3.65
2018-07-20T00:11:52.561Z,3.52
2018-07-20T00:14:20.268Z,4.00
2018-07-20T00:16:47.822Z,4.30
2018-07-20T00:19:15.436Z,4.08
2018-07-20T00:21:43.024Z,3.95
2018-07-20T00:24:10.618Z,3.90
2018-07-20T00:26:38.171Z,3.90
2018-07-20T00:29:05.771Z,3.80
2018-07-20T00:31:33.321Z,4.08
2018-07-20T00:34:00.859Z,3.80
2018-07-20T00:36:28.436Z,3.77
2018-07-20T00:38:56.121Z,3.80
2018-07-20T00:41:23.641Z,3.50
2018-07-20T00:43:51.233Z,3.40
2018-07-20T00:46:18.763Z,3.42
2018-07-20T00:48:46.319Z,3.87
2018-07-20T00:51:13.872Z,3.67
2018-07-20T00:53:41.692Z,4.10
2018-07-20T00:56:09.468Z,3.50
2018-07-20T00:58:37.052Z,3.95
2018-07-20T01:01:04.776Z,4.15
2018-07-20T01:03:32.295Z,4.05
2018-07-20T01:05:59.902Z,4.20
2018-07-20T01:08:27.671Z,4.30
2018-07-20T01:10:55.212Z,3.55
2018-07-20T01:13:22.776Z,3.77
2018-07-20T01:15:50.368Z,4.37
2018-07-20T01:18:17.923Z,3.87
2018-07-20T01:20:45.563Z,4.75
2018-07-20T01:23:13.387Z,4.35
2018-07-20T01:25:40.972Z,3.87
2018-07-20T01:28:08.560Z,4.33
2018-07-20T01:30:36.391Z,4.17
2018-07-20T01:33:03.919Z,4.35
2018-07-20T01:35:31.472Z,4.53
2018-07-20T01:37:58.984Z,5.03
2018-07-20T01:40:26.564Z,4.90
2018-07-20T01:42:54.233Z,4.33
2018-07-20T01:45:21.855Z,4.28
2018-07-20T01:47:49.366Z,4.65
2018-07-20T01:50:17.217Z,4.20
2018-07-20T01:52:44.772Z,3.95
2018-07-20T01:55:12.365Z,4.25
2018-07-20T01:57:39.975Z,4.17
2018-07-20T02:00:07.611Z,4.62
2018-07-20T02:02:35.478Z,4.40
2018-07-20T02:05:03.136Z,4.10
2018-07-20T02:07:30.647Z,4.78
2018-07-20T02:09:58.179Z,4.47
2018-07-20T02:12:25.816Z,5.37
2018-07-20T02:14:53.354Z,5.15
2018-07-20T02:17:21.046Z,4.85
2018-07-20T02:19:48.604Z,4.28
2018-07-20T02:22:16.295Z,3.90
2018-07-20T02:24:44.068Z,3.95
2018-07-20T02:27:11.695Z,4.25
2018-07-20T02:29:39.275Z,4.37
2018-07-20T02:32:06.841Z,4.58
2018-07-20T02:34:34.480Z,4.60
2018-07-20T02:37:02.052Z,4.50
2018-07-20T02:39:29.599Z,4.13
2018-07-20T02:41:57.432Z,4.22
2018-07-20T02:44:25.087Z,4.42
2018-07-20T02:46:52.642Z,4.50
2018-07-20T02:49:20.464Z,4.37
2018-07-20T02:51:48.142Z,4.47
2018-07-20T02:54:15.850Z,4.62
2018-07-20T02:59:16.619Z,5.03
2018-07-20T03:01:44.712Z,4.67
2018-07-20T03:04:12.278Z,5.08
2018-07-20T03:06:39.881Z,5.10
2018-07-20T03:09:08.931Z,4.58
2018-07-20T03:11:36.446Z,4.67
2018-07-20T03:14:04.000Z,5.30
2018-07-20T03:16:31.541Z,5.17
2018-07-20T03:18:59.092Z,5.45
2018-07-20T03:21:26.712Z,4.78
2018-07-20T03:23:54.292Z,5.08
2018-07-20T03:26:21.876Z,4.50
2018-07-20T03:28:49.495Z,6.70
2018-07-20T03:31:17.309Z,5.62
2018-07-20T03:33:44.886Z,5.40
2018-07-20T03:36:12.417Z,5.10
2018-07-20T03:38:39.989Z,5.10
2018-07-20T03:41:07.605Z,4.95
2018-07-20T03:43:35.292Z,5.03
2018-07-20T03:46:02.843Z,5.58
2018-07-20T03:48:30.412Z,5.00
2018-07-20T03:50:57.947Z,4.67
2018-07-20T03:53:26.141Z,5.10
2018-07-20T03:55:53.655Z,4.80
2018-07-20T03:58:21.523Z,4.30
2018-07-20T04:00:48.986Z,4.80
2018-07-20T04:03:16.698Z,4.55
2018-07-20T04:05:44.198Z,3.87
2018-07-20T04:08:11.721Z,4.05
2018-07-20T04:10:39.247Z,4.67
2018-07-20T04:13:06.816Z,4.70
2018-07-20T04:15:34.347Z,4.45
2018-07-20T04:18:01.890Z,4.87
2018-07-20T04:20:29.319Z,4.72
2018-07-20T04:22:56.870Z,5.72
2018-07-20T04:25:24.437Z,5.00
2018-07-20T04:27:52.053Z,5.25
2018-07-20T04:30:19.675Z,5.50
2018-07-20T04:32:47.222Z,5.17
2018-07-20T04:35:14.951Z,5.00
2018-07-20T04:37:42.543Z,5.15
2018-07-20T04:40:10.303Z,4.17
2018-07-20T04:42:37.823Z,5.15
2018-07-20T04:45:05.668Z,5.40
2018-07-20T04:47:33.458Z,6.00
2018-07-20T04:50:01.084Z,5.97
2018-07-20T04:52:28.581Z,5.80
2018-07-20T04:54:56.136Z,5.08
2018-07-20T04:57:23.941Z,4.72
2018-07-20T04:59:51.765Z,4.50
2018-07-20T05:02:19.318Z,4.72
2018-07-20T05:04:46.920Z,6.40
2018-07-20T05:07:14.489Z,5.50
2018-07-20T05:09:42.124Z,4.95
2018-07-20T05:12:10.360Z,5.28
2018-07-20T05:14:37.915Z,4.50
2018-07-20T05:17:05.489Z,4.17
2018-07-20T05:19:33.322Z,4.58
2018-07-20T05:22:00.888Z,4.45
2018-07-20T05:24:28.441Z,4.35
2018-07-20T05:26:56.212Z,4.95
2018-07-20T05:29:23.800Z,5.45
2018-07-20T05:31:51.315Z,4.97
2018-07-20T05:34:18.871Z,4.55
2018-07-20T05:36:46.567Z,4.30
2018-07-20T05:39:14.120Z,3.98
2018-07-20T05:41:42.028Z,4.30
2018-07-20T05:44:09.608Z,4.60
2018-07-20T05:46:37.104Z,4.05
2018-07-20T05:49:04.935Z,3.72
2018-07-20T05:51:32.593Z,3.85
2018-07-20T05:54:00.124Z,3.10
2018-07-20T05:56:27.707Z,2.62
2018-07-20T05:58:55.339Z,2.77
2018-07-20T06:01:22.953Z,3.30
2018-07-20T06:03:50.559Z,3.60
2018-07-20T06:06:18.131Z,4.47
2018-07-20T06:08:45.817Z,4.30
2018-07-20T06:11:13.632Z,3.70
2018-07-20T06:13:41.197Z,3.62
2018-07-20T06:16:08.754Z,3.60
2018-07-20T06:18:36.304Z,4.75
2018-07-20T06:21:04.629Z,5.72
2018-07-20T06:23:32.330Z,5.45
2018-07-20T06:25:59.820Z,4.53
2018-07-20T06:28:27.349Z,4.20
2018-07-20T06:30:54.943Z,3.85
2018-07-20T06:33:22.719Z,4.53
2018-07-20T06:35:50.283Z,3.98
2018-07-20T06:38:17.814Z,3.62
2018-07-20T06:40:45.532Z,3.33
2018-07-20T06:43:13.563Z,4.80
2018-07-20T06:45:41.090Z,4.60
2018-07-20T06:48:08.652Z,4.47
2018-07-20T06:50:36.239Z,4.65
2018-07-20T06:53:03.811Z,5.78
2018-07-20T06:55:31.271Z,5.30
2018-07-20T06:57:59.079Z,4.70
2018-07-20T07:00:26.744Z,5.62
2018-07-20T07:02:54.375Z,5.55
2018-07-20T07:05:21.933Z,5.45
2018-07-20T07:07:49.481Z,5.67
2018-07-20T07:10:17.260Z,6.08
2018-07-20T07:12:44.820Z,6.85
2018-07-20T07:15:12.455Z,6.47
2018-07-20T07:17:41.040Z,6.45
2018-07-20T07:20:08.571Z,6.78
2018-07-20T07:22:36.131Z,7.20
2018-07-20T07:25:03.724Z,7.50
2018-07-20T07:27:31.242Z,6.42
2018-07-20T07:29:59.076Z,5.55
2018-07-20T07:32:26.613Z,4.90
2018-07-20T07:34:54.379Z,5.40
2018-07-20T07:37:21.967Z,4.85
2018-07-20T07:39:49.527Z,5.30
2018-07-20T07:42:17.141Z,5.78
2018-07-20T07:44:44.904Z,4.53
2018-07-20T07:47:12.474Z,4.37
2018-07-20T07:49:40.236Z,3.98
2018-07-20T07:52:07.834Z,3.98
2018-07-20T07:54:36.304Z,5.63
2018-07-20T07:57:03.870Z,5.83
2018-07-20T07:59:31.444Z,4.87
2018-07-20T08:01:59.045Z,5.03
2018-07-20T08:04:26.521Z,5.05
2018-07-20T08:06:54.066Z,5.17
2018-07-20T08:09:22.391Z,4.95
2018-07-20T08:11:50.055Z,5.10
2018-07-20T08:14:17.644Z,4.58
2018-07-20T08:16:45.190Z,4.00
2018-07-20T08:19:12.924Z,3.27
2018-07-20T08:21:40.977Z,3.60
2018-07-20T08:24:09.789Z,4.45
2018-07-20T08:26:37.352Z,4.45
2018-07-20T08:29:04.999Z,3.60
2018-07-20T08:31:32.527Z,3.27
2018-07-20T08:34:00.068Z,3.67
2018-07-20T08:36:27.609Z,4.37
2018-07-20T08:38:55.152Z,4.00
2018-07-20T08:41:22.696Z,4.03
2018-07-20T08:43:50.742Z,4.40
2018-07-20T08:46:18.681Z,3.72
2018-07-20T08:48:46.303Z,4.78
2018-07-20T08:51:13.875Z,4.60
2018-07-20T08:53:41.666Z,4.45
2018-07-20T08:56:09.339Z,4.00
2018-07-20T08:58:37.391Z,4.05
2018-07-20T09:01:05.430Z,3.47
2018-07-20T09:03:33.492Z,2.92
2018-07-20T09:06:01.369Z,2.77
2018-07-20T09:08:28.968Z,2.30
2018-07-20T09:10:56.549Z,3.87
2018-07-20T09:13:24.168Z,4.53
2018-07-20T09:15:52.604Z,4.65
2018-07-20T09:18:20.159Z,3.60
2018-07-20T09:20:47.944Z,3.37
2018-07-20T09:23:15.971Z,2.85
2018-07-20T09:25:43.810Z,3.95
2018-07-20T09:28:12.170Z,4.17
2018-07-20T09:30:40.940Z,3.50
2018-07-20T09:33:08.992Z,3.50
2018-07-20T09:35:36.580Z,3.40
2018-07-20T09:38:04.733Z,3.90
2018-07-20T09:40:32.790Z,3.15
2018-07-20T09:43:00.751Z,3.10
2018-07-20T09:45:28.341Z,3.17
2018-07-20T09:47:55.908Z,3.10
2018-07-20T09:50:23.660Z,3.80
2018-07-20T09:52:51.456Z,2.60
2018-07-20T09:55:19.105Z,3.05
2018-07-20T09:57:46.807Z,3.50
2018-07-20T10:00:20.464Z,3.60
2018-07-20T10:02:48.304Z,3.83
2018-07-20T10:05:16.184Z,3.95
2018-07-20T10:07:43.715Z,3.12
2018-07-20T10:10:12.477Z,2.45
2018-07-20T10:12:40.261Z,2.72
2018-07-20T10:15:08.247Z,3.20
2018-07-20T10:17:35.819Z,2.90
2018-07-20T10:20:03.995Z,2.75
2018-07-20T10:22:31.704Z,2.67
2018-07-20T10:24:59.729Z,3.20
2018-07-20T10:27:27.384Z,2.62
2018-07-20T10:29:55.482Z,2.98
2018-07-20T10:32:23.134Z,2.77
2018-07-20T10:34:51.297Z,2.60
2018-07-20T10:37:19.128Z,3.12
2018-07-20T10:39:46.686Z,3.25
2018-07-20T10:42:14.319Z,3.30
2018-07-20T10:44:42.164Z,3.05
2018-07-20T10:47:10.948Z,3.50
2018-07-20T10:49:38.495Z,3.90
2018-07-20T10:52:06.652Z,3.52
2018-07-20T10:54:34.412Z,3.80
2018-07-20T10:57:01.979Z,2.83
2018-07-20T10:59:29.710Z,3.58
2018-07-20T11:01:58.143Z,3.37
2018-07-20T11:04:25.757Z,3.20
2018-07-20T11:06:53.351Z,2.92
2018-07-20T11:09:21.459Z,3.25
2018-07-20T11:11:49.228Z,3.37
2018-07-20T11:14:17.098Z,3.58
2018-07-20T11:16:45.025Z,3.27
2018-07-20T11:19:12.760Z,3.08
2018-07-20T11:21:40.374Z,3.17
2018-07-20T11:24:07.964Z,3.20
2018-07-20T11:26:36.131Z,3.60
2018-07-20T11:29:04.230Z,3.40
2018-07-20T11:31:31.821Z,3.60
2018-07-20T11:33:59.426Z,3.95
2018-07-20T11:36:27.408Z,3.42
2018-07-20T11:38:55.668Z,3.70
2018-07-20T11:41:23.703Z,3.80
2018-07-20T11:43:51.346Z,4.30
2018-07-20T11:46:19.484Z,3.92
2018-07-20T11:48:47.364Z,3.92
2018-07-20T11:51:15.321Z,4.55
2018-07-20T11:53:43.083Z,4.10
2018-07-20T11:56:11.608Z,4.20
2018-07-20T11:58:40.143Z,4.12
2018-07-20T12:01:08.997Z,4.20
2018-07-20T12:03:36.768Z,4.03
2018-07-20T12:06:05.341Z,4.30
2018-07-20T12:08:33.261Z,4.30
2018-07-20T12:11:01.383Z,3.98
2018-07-20T12:13:29.147Z,3.58
2018-07-20T12:15:56.991Z,3.70
2018-07-20T12:18:25.193Z,2.72
2018-07-20T12:20:52.892Z,3.98
2018-07-20T12:23:20.784Z,3.65
2018-07-20T12:25:48.403Z,4.42
2018-07-20T12:28:16.996Z,4.17
2018-07-20T12:30:44.843Z,4.72
2018-07-20T12:33:12.431Z,4.10
2018-07-20T12:35:40.024Z,4.28
2018-07-20T12:38:07.937Z,4.55
2018-07-20T12:40:35.902Z,4.75
2018-07-20T12:45:38.440Z,5.58
2018-07-20T12:48:06.855Z,4.40
2018-07-20T12:50:34.856Z,4.75
2018-07-20T12:53:02.560Z,5.60
2018-07-20T12:55:30.111Z,5.33
2018-07-20T12:57:57.869Z,5.60
2018-07-20T13:00:26.368Z,5.30
2018-07-20T13:02:54.092Z,5.78
2018-07-20T13:05:22.045Z,5.55
2018-07-20T13:07:49.875Z,5.25
2018-07-20T13:10:17.421Z,6.00
2018-07-20T13:12:46.247Z,6.75
2018-07-20T13:15:13.847Z,6.35
2018-07-20T13:17:43.903Z,6.20
2018-07-20T13:20:12.264Z,6.37
2018-07-20T13:22:39.984Z,5.60
2018-07-20T13:25:07.745Z,5.60
2018-07-20T13:27:35.400Z,5.78
2018-07-20T13:30:04.083Z,4.33
2018-07-20T13:32:32.180Z,4.12
2018-07-20T13:34:59.829Z,3.92
2018-07-20T13:37:27.653Z,4.12
2018-07-20T13:39:55.409Z,4.45
2018-07-20T13:42:23.659Z,4.72
2018-07-20T13:44:51.160Z,5.40
2018-07-20T13:47:18.824Z,5.65
2018-07-20T13:49:46.557Z,5.70
2018-07-20T13:52:15.113Z,5.53
2018-07-20T13:54:43.068Z,6.22
2018-07-20T13:57:11.755Z,5.45
2018-07-20T13:59:39.657Z,5.17
2018-07-20T14:02:07.518Z,5.33
2018-07-20T14:04:36.550Z,4.55
2018-07-20T14:07:04.527Z,5.00
2018-07-20T14:09:33.029Z,4.80
2018-07-20T14:12:00.913Z,3.92
2018-07-20T14:14:28.629Z,4.90
2018-07-20T14:16:56.552Z,4.72
2018-07-20T14:19:24.426Z,4.60
2018-07-20T14:21:52.145Z,5.12
2018-07-20T14:24:19.829Z,5.65
2018-07-20T14:26:48.206Z,4.70
2018-07-20T14:29:15.908Z,4.85
2018-07-20T14:31:44.240Z,4.50
2018-07-20T14:34:11.927Z,4.22
2018-07-20T14:36:39.472Z,4.70
2018-07-20T14:39:10.556Z,4.80
2018-07-20T14:41:38.408Z,4.12
2018-07-20T14:44:06.151Z,4.40
2018-07-20T14:46:33.859Z,4.47
2018-07-20T14:49:01.516Z,5.42
2018-07-20T14:51:29.195Z,5.37
2018-07-20T14:53:56.867Z,4.85
2018-07-20T14:56:24.435Z,5.10
2018-07-20T14:58:52.009Z,5.05
2018-07-20T15:01:19.661Z,5.78
2018-07-20T15:03:47.524Z,4.85
2018-07-20T15:06:15.076Z,5.17
2018-07-20T15:08:49.252Z,5.03
2018-07-20T15:11:17.080Z,5.45
2018-07-20T15:13:44.621Z,5.70
2018-07-20T15:16:12.174Z,5.42
2018-07-20T15:18:40.127Z,6.20
2018-07-20T15:21:07.980Z,5.60
2018-07-20T15:23:35.585Z,5.75
2018-07-20T15:26:03.557Z,5.37
2018-07-20T15:28:31.128Z,7.00
2018-07-20T15:30:58.883Z,7.97
2018-07-20T15:33:26.460Z,6.60
2018-07-20T15:35:54.071Z,7.03
2018-07-20T15:38:21.656Z,6.85
2018-07-20T15:40:49.263Z,7.23
2018-07-20T15:43:16.919Z,7.92
2018-07-20T15:45:51.971Z,8.30
2018-07-20T15:48:12.504Z,8.30
2018-07-20T15:50:40.112Z,8.30
2018-07-20T15:53:37.545Z,9.28
2018-07-20T15:55:35.572Z,9.60
2018-07-20T15:58:03.185Z,10.05
2018-07-20T16:00:30.791Z,9.83
2018-07-20T16:02:58.916Z,10.03
2018-07-20T16:05:26.520Z,10.50
2018-07-20T16:07:54.054Z,10.15
2018-07-20T16:10:22.161Z,9.53
2018-07-20T16:12:49.731Z,9.68
2018-07-20T16:15:17.755Z,9.93
2018-07-20T16:17:45.644Z,10.70
2018-07-20T16:20:13.208Z,9.13
2018-07-20T16:22:40.861Z,9.00
2018-07-20T16:25:08.506Z,8.03
2018-07-20T16:27:36.715Z,6.47
2018-07-20T16:30:05.393Z,5.87
2018-07-20T16:32:33.423Z,7.03
2018-07-20T16:35:01.272Z,7.45
2018-07-20T16:37:29.309Z,6.70
2018-07-20T16:39:56.909Z,6.42
2018-07-20T16:42:24.776Z,5.78
2018-07-20T16:44:52.458Z,5.08
2018-07-20T16:47:20.047Z,4.55
2018-07-20T16:49:47.603Z,4.95
2018-07-20T16:52:15.278Z,4.90
2018-07-20T16:54:42.918Z,4.58
2018-07-20T16:57:10.756Z,5.10
2018-07-20T16:59:38.747Z,5.25
2018-07-20T17:02:07.279Z,4.70
2018-07-20T17:04:34.871Z,5.65
2018-07-20T17:07:02.473Z,5.45
2018-07-20T17:09:30.033Z,5.60
2018-07-20T17:11:58.380Z,5.78
2018-07-20T17:14:26.207Z,5.90
2018-07-20T17:16:54.138Z,5.33
2018-07-20T17:19:22.506Z,5.75
2018-07-20T17:21:50.063Z,5.50
2018-07-20T17:24:17.764Z,5.85
2018-07-20T17:26:45.379Z,4.90
2018-07-20T17:29:12.969Z,4.70
2018-07-20T17:31:40.755Z,4.20
2018-07-20T17:34:08.347Z,3.80
2018-07-20T17:36:35.922Z,3.90
2018-07-20T17:39:05.756Z,4.30
2018-07-20T17:41:33.313Z,3.87
2018-07-20T17:44:01.169Z,3.90
2018-07-20T17:46:28.726Z,3.90
2018-07-20T17:48:56.300Z,4.28
2018-07-20T17:51:23.888Z,4.65
2018-07-20T17:53:51.484Z,4.40
2018-07-20T17:56:19.492Z,5.12
2018-07-20T17:58:47.140Z,4.58
2018-07-20T18:01:14.767Z,4.53
2018-07-20T18:03:42.389Z,5.00
2018-07-20T18:06:10.635Z,4.62
2018-07-20T18:08:39.562Z,4.55
2018-07-20T18:11:07.352Z,4.75
2018-07-20T18:13:35.129Z,3.67
2018-07-20T18:16:03.078Z,3.30
2018-07-20T18:18:30.761Z,3.65
2018-07-20T18:20:58.522Z,3.55
2018-07-20T18:23:26.276Z,3.40
2018-07-20T18:25:54.646Z,3.92
2018-07-20T18:28:22.676Z,4.12
2018-07-20T18:30:50.839Z,4.85
2018-07-20T18:33:18.796Z,5.10
2018-07-20T18:35:46.396Z,4.80
2018-07-20T18:38:14.228Z,4.35
2018-07-20T18:40:47.971Z,4.42
2018-07-20T18:43:16.369Z,4.05
2018-07-20T18:45:44.251Z,3.80
2018-07-20T18:48:12.520Z,3.98
2018-07-20T18:50:40.187Z,3.60
2018-07-20T18:53:08.385Z,3.62
2018-07-20T18:55:36.411Z,3.65
2018-07-20T18:58:04.372Z,3.40
2018-07-20T19:00:32.358Z,3.47
2018-07-20T19:03:00.452Z,2.70
2018-07-20T19:05:28.467Z,3.10
2018-07-20T19:07:56.273Z,3.27
2018-07-20T19:10:24.500Z,3.40
2018-07-20T19:12:52.546Z,3.17
2018-07-20T19:15:20.796Z,2.98
2018-07-20T19:17:50.484Z,3.52
2018-07-20T19:20:18.160Z,3.80
2018-07-20T19:22:46.514Z,3.58
2018-07-20T19:25:15.179Z,4.00
2018-07-20T19:27:42.905Z,3.60
2018-07-20T19:30:34.961Z,3.25
2018-07-20T19:33:02.624Z,3.22
2018-07-20T19:35:31.506Z,3.47
2018-07-20T19:37:59.248Z,3.47
2018-07-20T19:40:27.335Z,3.75
2018-07-20T19:42:55.472Z,3.40
2018-07-20T19:45:23.124Z,3.67
2018-07-20T19:47:50.837Z,3.15
2018-07-20T19:50:18.576Z,2.92
2018-07-20T19:52:46.367Z,3.45
2018-07-20T19:55:14.249Z,3.12
2018-07-20T19:57:41.893Z,3.10
2018-07-20T20:00:10.429Z,4.05
2018-07-20T20:02:38.093Z,4.00
2018-07-20T20:05:06.293Z,3.45
2018-07-20T20:07:34.048Z,3.35
2018-07-20T20:10:02.163Z,4.95
2018-07-20T20:12:29.957Z,4.12
2018-07-20T20:14:57.918Z,3.80
2018-07-20T20:17:25.592Z,5.10
2018-07-20T20:19:53.549Z,5.58
2018-07-20T20:22:21.249Z,4.90
2018-07-20T20:24:48.927Z,4.45
2018-07-20T20:27:16.627Z,5.53
2018-07-20T20:29:44.535Z,6.05
2018-07-20T20:32:12.224Z,5.42
2018-07-20T20:34:39.973Z,5.22
2018-07-20T20:37:07.607Z,5.40
2018-07-20T20:39:35.384Z,4.60
2018-07-20T20:42:03.144Z,4.53
2018-07-20T20:44:30.983Z,4.62
2018-07-20T20:46:58.739Z,3.72
2018-07-20T20:49:26.424Z,3.85
2018-07-20T20:51:54.307Z,4.10
2018-07-20T20:54:22.116Z,4.60
2018-07-20T20:56:49.868Z,5.08
2018-07-20T20:59:17.611Z,4.57
2018-07-20T21:01:45.310Z,3.80
2018-07-20T21:04:13.016Z,3.80
2018-07-20T21:06:40.773Z,4.12
2018-07-20T21:09:09.019Z,4.05
2018-07-20T21:11:36.869Z,4.42
2018-07-20T21:14:04.667Z,4.00
2018-07-20T21:16:32.384Z,3.77
2018-07-20T21:19:00.160Z,4.30
2018-07-20T21:21:27.807Z,5.30
2018-07-20T21:23:55.684Z,5.35
2018-07-20T21:26:23.444Z,5.25
2018-07-20T21:28:51.132Z,4.33
2018-07-20T21:31:18.800Z,5.03
2018-07-20T21:33:46.451Z,5.42
2018-07-20T21:36:14.143Z,5.05
2018-07-20T21:38:41.763Z,4.70
2018-07-20T21:41:09.586Z,4.70
2018-07-20T21:43:37.564Z,4.10
2018-07-20T21:46:05.340Z,3.95
2018-07-20T21:48:33.046Z,4.83
2018-07-20T21:51:00.684Z,5.45
2018-07-20T21:53:28.874Z,6.47
2018-07-20T21:55:56.492Z,6.10
2018-07-20T21:58:24.289Z,5.12
2018-07-20T22:00:52.084Z,7.10
2018-07-20T22:03:19.915Z,7.80
2018-07-20T22:05:47.524Z,9.43
2018-07-20T22:08:15.409Z,12.23
2018-07-20T22:10:42.999Z,11.70
2018-07-20T22:13:10.712Z,11.25
2018-07-20T22:15:38.351Z,11.20
2018-07-20T22:18:07.478Z,11.00
2018-07-20T22:20:35.448Z,12.30
2018-07-20T22:23:03.469Z,10.82
2018-07-20T22:25:31.212Z,10.58
2018-07-20T22:27:59.309Z,8.58
2018-07-20T22:30:27.194Z,7.72
2018-07-20T22:32:54.979Z,7.78
2018-07-20T22:35:22.690Z,7.20
2018-07-20T22:37:50.433Z,7.17
2018-07-20T22:40:18.237Z,6.30
2018-07-20T22:42:46.296Z,6.63
2018-07-20T22:45:14.212Z,7.15
2018-07-20T22:47:42.289Z,8.37
2018-07-20T22:50:10.014Z,8.65
2018-07-20T22:52:37.832Z,9.13
2018-07-20T22:55:06.014Z,8.65
2018-07-20T22:57:33.640Z,7.78
2018-07-20T23:00:01.653Z,7.42
2018-07-20T23:02:29.227Z,7.95
2018-07-20T23:04:57.004Z,6.53
2018-07-20T23:07:24.568Z,5.55
2018-07-20T23:09:52.162Z,5.60
2018-07-20T23:12:20.141Z,6.40
2018-07-20T23:14:48.028Z,6.47
2018-07-20T23:17:15.608Z,5.62
2018-07-20T23:19:43.357Z,5.28
2018-07-20T23:22:11.410Z,5.87
2018-07-20T23:24:39.110Z,5.33
2018-07-20T23:27:06.727Z,4.80
2018-07-20T23:29:34.423Z,5.65
2018-07-20T23:32:01.890Z,5.45
2018-07-20T23:34:29.590Z,5.65
2018-07-20T23:36:57.564Z,5.22
2018-07-20T23:39:25.443Z,5.35
2018-07-20T23:41:53.171Z,5.00
2018-07-20T23:44:21.433Z,6.17
2018-07-20T23:46:49.248Z,5.72
2018-07-20T23:49:16.988Z,5.60
2018-07-20T23:51:44.847Z,5.08
2018-07-20T23:54:12.604Z,5.30
2018-07-20T23:56:40.359Z,5.20
2018-07-20T23:59:08.154Z,5.58
